sensor_id;sensor_type;location;lat;lon;timestamp;temperature;humidity
55121;DHT22;41019;48.512;9.036;2023-04-30T00:00:06;13.00;94.30
55121;DHT22;41019;48.512;9.036;2023-04-30T00:02:36;13.00;94.30
55121;DHT22;41019;48.512;9.036;2023-04-30T00:05:02;13.00;94.40
55121;DHT22;41019;48.512;9.036;2023-04-30T00:07:28;12.90;94.40
55121;DHT22;41019;48.512;9.036;2023-04-30T00:09:53;12.90;94.40
55121;DHT22;41019;48.512;9.036;2023-04-30T00:12:19;12.90;94.60
55121;DHT22;41019;48.512;9.036;2023-04-30T00:14:45;12.90;94.60
55121;DHT22;41019;48.512;9.036;2023-04-30T00:17:11;12.90;94.80
55121;DHT22;41019;48.512;9.036;2023-04-30T00:19:37;12.90;94.60
55121;DHT22;41019;48.512;9.036;2023-04-30T00:22:03;12.90;94.60
55121;DHT22;41019;48.512;9.036;2023-04-30T00:24:30;12.90;94.60
55121;DHT22;41019;48.512;9.036;2023-04-30T00:26:56;12.90;95.10
55121;DHT22;41019;48.512;9.036;2023-04-30T00:29:21;13.00;95.30
55121;DHT22;41019;48.512;9.036;2023-04-30T00:31:47;12.90;95.70
55121;DHT22;41019;48.512;9.036;2023-04-30T00:34:13;13.00;95.90
55121;DHT22;41019;48.512;9.036;2023-04-30T00:36:39;13.00;95.90
55121;DHT22;41019;48.512;9.036;2023-04-30T00:39:05;12.90;96.00
55121;DHT22;41019;48.512;9.036;2023-04-30T00:41:34;12.90;95.90
55121;DHT22;41019;48.512;9.036;2023-04-30T00:44:00;12.90;95.80
55121;DHT22;41019;48.512;9.036;2023-04-30T00:46:27;12.90;95.90
55121;DHT22;41019;48.512;9.036;2023-04-30T00:48:53;12.90;96.00
55121;DHT22;41019;48.512;9.036;2023-04-30T00:51:19;12.90;96.30
55121;DHT22;41019;48.512;9.036;2023-04-30T00:53:46;12.90;96.60
55121;DHT22;41019;48.512;9.036;2023-04-30T00:56:13;12.90;96.30
55121;DHT22;41019;48.512;9.036;2023-04-30T00:58:41;12.90;96.20
55121;DHT22;41019;48.512;9.036;2023-04-30T01:01:07;12.90;96.10
55121;DHT22;41019;48.512;9.036;2023-04-30T01:03:33;12.90;95.90
55121;DHT22;41019;48.512;9.036;2023-04-30T01:06:01;12.90;95.90
55121;DHT22;41019;48.512;9.036;2023-04-30T01:08:29;12.90;96.00
55121;DHT22;41019;48.512;9.036;2023-04-30T01:11:15;12.90;95.70
55121;DHT22;41019;48.512;9.036;2023-04-30T01:13:57;12.80;95.50
55121;DHT22;41019;48.512;9.036;2023-04-30T01:16:29;12.90;95.60
55121;DHT22;41019;48.512;9.036;2023-04-30T01:21:42;12.80;95.30
55121;DHT22;41019;48.512;9.036;2023-04-30T01:24:17;12.90;95.50
55121;DHT22;41019;48.512;9.036;2023-04-30T01:27:12;12.90;95.50
55121;DHT22;41019;48.512;9.036;2023-04-30T01:29:41;12.90;95.80
55121;DHT22;41019;48.512;9.036;2023-04-30T01:32:09;12.90;95.90
55121;DHT22;41019;48.512;9.036;2023-04-30T01:34:36;12.90;95.60
55121;DHT22;41019;48.512;9.036;2023-04-30T01:37:23;12.90;95.70
55121;DHT22;41019;48.512;9.036;2023-04-30T01:40:19;12.80;95.40
55121;DHT22;41019;48.512;9.036;2023-04-30T01:45:45;12.80;95.10
55121;DHT22;41019;48.512;9.036;2023-04-30T01:48:28;12.80;95.20
55121;DHT22;41019;48.512;9.036;2023-04-30T01:53:41;12.80;95.10
55121;DHT22;41019;48.512;9.036;2023-04-30T01:56:16;12.70;95.20
55121;DHT22;41019;48.512;9.036;2023-04-30T01:58:45;12.70;95.10
55121;DHT22;41019;48.512;9.036;2023-04-30T02:01:27;12.70;95.00
55121;DHT22;41019;48.512;9.036;2023-04-30T02:03:54;12.70;94.80
55121;DHT22;41019;48.512;9.036;2023-04-30T02:06:20;12.70;95.00
55121;DHT22;41019;48.512;9.036;2023-04-30T02:08:46;12.70;95.00
55121;DHT22;41019;48.512;9.036;2023-04-30T02:11:13;12.70;94.90
55121;DHT22;41019;48.512;9.036;2023-04-30T02:13:39;12.60;94.90
55121;DHT22;41019;48.512;9.036;2023-04-30T02:16:05;12.60;95.10
55121;DHT22;41019;48.512;9.036;2023-04-30T02:18:31;12.60;95.20
55121;DHT22;41019;48.512;9.036;2023-04-30T02:20:57;12.60;95.30
55121;DHT22;41019;48.512;9.036;2023-04-30T02:23:22;12.60;95.30
55121;DHT22;41019;48.512;9.036;2023-04-30T02:25:49;12.50;95.40
55121;DHT22;41019;48.512;9.036;2023-04-30T02:28:14;12.50;95.30
55121;DHT22;41019;48.512;9.036;2023-04-30T02:30:40;12.50;95.20
55121;DHT22;41019;48.512;9.036;2023-04-30T02:33:07;12.50;95.30
55121;DHT22;41019;48.512;9.036;2023-04-30T02:35:32;12.50;95.30
55121;DHT22;41019;48.512;9.036;2023-04-30T02:37:58;12.40;95.20
55121;DHT22;41019;48.512;9.036;2023-04-30T02:40:24;12.40;95.30
55121;DHT22;41019;48.512;9.036;2023-04-30T02:42:50;12.50;95.20
55121;DHT22;41019;48.512;9.036;2023-04-30T02:45:18;12.50;95.30
55121;DHT22;41019;48.512;9.036;2023-04-30T02:47:44;12.40;95.30
55121;DHT22;41019;48.512;9.036;2023-04-30T02:50:10;12.40;95.30
55121;DHT22;41019;48.512;9.036;2023-04-30T02:52:36;12.30;95.20
55121;DHT22;41019;48.512;9.036;2023-04-30T02:55:02;12.30;95.20
55121;DHT22;41019;48.512;9.036;2023-04-30T02:57:28;12.30;95.20
55121;DHT22;41019;48.512;9.036;2023-04-30T02:59:54;12.30;95.10
55121;DHT22;41019;48.512;9.036;2023-04-30T03:02:22;12.30;95.20
55121;DHT22;41019;48.512;9.036;2023-04-30T03:04:49;12.30;95.20
55121;DHT22;41019;48.512;9.036;2023-04-30T03:07:15;12.20;95.10
55121;DHT22;41019;48.512;9.036;2023-04-30T03:09:42;12.20;95.10
55121;DHT22;41019;48.512;9.036;2023-04-30T03:12:08;12.20;95.20
55121;DHT22;41019;48.512;9.036;2023-04-30T03:14:34;12.20;95.10
55121;DHT22;41019;48.512;9.036;2023-04-30T03:17:00;12.20;95.00
55121;DHT22;41019;48.512;9.036;2023-04-30T03:19:27;12.20;95.10
55121;DHT22;41019;48.512;9.036;2023-04-30T03:21:53;12.10;95.20
55121;DHT22;41019;48.512;9.036;2023-04-30T03:24:19;12.20;95.20
55121;DHT22;41019;48.512;9.036;2023-04-30T03:26:46;12.20;95.20
55121;DHT22;41019;48.512;9.036;2023-04-30T03:29:12;12.20;95.20
55121;DHT22;41019;48.512;9.036;2023-04-30T03:31:38;12.20;95.20
55121;DHT22;41019;48.512;9.036;2023-04-30T03:34:03;12.10;95.10
55121;DHT22;41019;48.512;9.036;2023-04-30T03:36:29;12.10;95.20
55121;DHT22;41019;48.512;9.036;2023-04-30T03:38:55;12.10;95.20
55121;DHT22;41019;48.512;9.036;2023-04-30T03:41:21;12.10;95.20
55121;DHT22;41019;48.512;9.036;2023-04-30T03:43:48;12.10;95.40
55121;DHT22;41019;48.512;9.036;2023-04-30T03:46:14;12.10;95.10
55121;DHT22;41019;48.512;9.036;2023-04-30T03:48:40;12.00;95.10
55121;DHT22;41019;48.512;9.036;2023-04-30T03:51:07;12.00;95.20
55121;DHT22;41019;48.512;9.036;2023-04-30T03:53:34;12.00;95.30
55121;DHT22;41019;48.512;9.036;2023-04-30T03:56:01;11.90;95.40
55121;DHT22;41019;48.512;9.036;2023-04-30T03:58:27;11.90;95.40
55121;DHT22;41019;48.512;9.036;2023-04-30T04:00:53;11.90;95.40
55121;DHT22;41019;48.512;9.036;2023-04-30T04:03:19;11.90;95.50
55121;DHT22;41019;48.512;9.036;2023-04-30T04:05:45;11.90;95.40
55121;DHT22;41019;48.512;9.036;2023-04-30T04:08:11;11.90;95.60
55121;DHT22;41019;48.512;9.036;2023-04-30T04:10:41;11.80;95.60
55121;DHT22;41019;48.512;9.036;2023-04-30T04:13:08;11.80;95.60
55121;DHT22;41019;48.512;9.036;2023-04-30T04:15:34;11.80;95.70
55121;DHT22;41019;48.512;9.036;2023-04-30T04:18:00;11.80;95.70
55121;DHT22;41019;48.512;9.036;2023-04-30T04:20:26;11.80;95.80
55121;DHT22;41019;48.512;9.036;2023-04-30T04:22:55;11.80;95.80
55121;DHT22;41019;48.512;9.036;2023-04-30T04:25:21;11.70;95.80
55121;DHT22;41019;48.512;9.036;2023-04-30T04:27:50;11.70;95.80
55121;DHT22;41019;48.512;9.036;2023-04-30T04:30:17;11.80;95.80
55121;DHT22;41019;48.512;9.036;2023-04-30T04:32:43;11.70;95.80
55121;DHT22;41019;48.512;9.036;2023-04-30T04:35:14;11.80;95.80
55121;DHT22;41019;48.512;9.036;2023-04-30T04:37:41;11.80;95.70
55121;DHT22;41019;48.512;9.036;2023-04-30T04:40:07;11.80;95.70
55121;DHT22;41019;48.512;9.036;2023-04-30T04:42:34;11.80;95.70
55121;DHT22;41019;48.512;9.036;2023-04-30T04:45:00;11.80;95.70
55121;DHT22;41019;48.512;9.036;2023-04-30T04:47:28;11.80;95.60
55121;DHT22;41019;48.512;9.036;2023-04-30T04:49:55;11.80;95.80
55121;DHT22;41019;48.512;9.036;2023-04-30T04:52:21;11.80;95.50
55121;DHT22;41019;48.512;9.036;2023-04-30T04:54:47;11.90;95.60
55121;DHT22;41019;48.512;9.036;2023-04-30T04:57:13;11.90;95.60
55121;DHT22;41019;48.512;9.036;2023-04-30T04:59:39;11.80;95.40
55121;DHT22;41019;48.512;9.036;2023-04-30T05:02:05;11.80;95.60
55121;DHT22;41019;48.512;9.036;2023-04-30T05:04:32;11.80;95.60
55121;DHT22;41019;48.512;9.036;2023-04-30T05:06:57;11.80;95.70
55121;DHT22;41019;48.512;9.036;2023-04-30T05:09:23;11.80;95.60
55121;DHT22;41019;48.512;9.036;2023-04-30T05:11:49;11.90;95.40
55121;DHT22;41019;48.512;9.036;2023-04-30T05:14:15;11.90;95.50
55121;DHT22;41019;48.512;9.036;2023-04-30T05:16:42;11.90;95.50
55121;DHT22;41019;48.512;9.036;2023-04-30T05:19:08;12.00;95.60
55121;DHT22;41019;48.512;9.036;2023-04-30T05:21:34;11.90;95.30
55121;DHT22;41019;48.512;9.036;2023-04-30T05:24:01;11.90;95.30
55121;DHT22;41019;48.512;9.036;2023-04-30T05:26:27;11.90;95.40
55121;DHT22;41019;48.512;9.036;2023-04-30T05:28:53;12.00;95.30
55121;DHT22;41019;48.512;9.036;2023-04-30T05:31:18;12.00;95.30
55121;DHT22;41019;48.512;9.036;2023-04-30T05:33:44;12.00;95.20
55121;DHT22;41019;48.512;9.036;2023-04-30T05:36:11;12.00;95.30
55121;DHT22;41019;48.512;9.036;2023-04-30T05:38:36;12.10;95.30
55121;DHT22;41019;48.512;9.036;2023-04-30T05:41:02;12.20;94.90
55121;DHT22;41019;48.512;9.036;2023-04-30T05:43:28;12.20;94.90
55121;DHT22;41019;48.512;9.036;2023-04-30T05:45:54;12.30;94.90
55121;DHT22;41019;48.512;9.036;2023-04-30T05:48:20;12.30;94.90
55121;DHT22;41019;48.512;9.036;2023-04-30T05:50:46;12.40;94.80
55121;DHT22;41019;48.512;9.036;2023-04-30T05:53:12;12.40;94.70
55121;DHT22;41019;48.512;9.036;2023-04-30T05:55:38;12.50;94.60
55121;DHT22;41019;48.512;9.036;2023-04-30T05:58:04;12.60;94.30
55121;DHT22;41019;48.512;9.036;2023-04-30T06:00:30;12.70;94.00
55121;DHT22;41019;48.512;9.036;2023-04-30T06:02:56;12.70;94.00
55121;DHT22;41019;48.512;9.036;2023-04-30T06:05:22;12.80;93.70
55121;DHT22;41019;48.512;9.036;2023-04-30T06:07:48;12.90;93.40
55121;DHT22;41019;48.512;9.036;2023-04-30T06:10:14;13.00;93.60
55121;DHT22;41019;48.512;9.036;2023-04-30T06:12:40;13.00;93.20
55121;DHT22;41019;48.512;9.036;2023-04-30T06:15:07;13.00;93.20
55121;DHT22;41019;48.512;9.036;2023-04-30T06:17:32;13.20;93.30
55121;DHT22;41019;48.512;9.036;2023-04-30T06:19:58;13.30;93.10
55121;DHT22;41019;48.512;9.036;2023-04-30T06:22:27;13.40;92.70
55121;DHT22;41019;48.512;9.036;2023-04-30T06:24:53;13.50;92.70
55121;DHT22;41019;48.512;9.036;2023-04-30T06:27:19;13.50;92.30
55121;DHT22;41019;48.512;9.036;2023-04-30T06:29:45;13.70;92.70
55121;DHT22;41019;48.512;9.036;2023-04-30T06:32:11;13.80;92.30
55121;DHT22;41019;48.512;9.036;2023-04-30T06:34:37;13.90;91.70
55121;DHT22;41019;48.512;9.036;2023-04-30T06:37:03;14.10;92.00
55121;DHT22;41019;48.512;9.036;2023-04-30T06:39:29;14.20;91.30
55121;DHT22;41019;48.512;9.036;2023-04-30T06:41:55;14.40;91.40
55121;DHT22;41019;48.512;9.036;2023-04-30T06:44:21;14.60;90.90
55121;DHT22;41019;48.512;9.036;2023-04-30T06:46:47;14.70;90.70
55121;DHT22;41019;48.512;9.036;2023-04-30T06:49:13;15.00;90.20
55121;DHT22;41019;48.512;9.036;2023-04-30T06:51:40;15.00;88.80
55121;DHT22;41019;48.512;9.036;2023-04-30T06:54:07;14.90;88.60
55121;DHT22;41019;48.512;9.036;2023-04-30T06:56:33;14.90;88.30
55121;DHT22;41019;48.512;9.036;2023-04-30T06:58:59;14.90;88.20
55121;DHT22;41019;48.512;9.036;2023-04-30T07:01:26;14.90;88.30
55121;DHT22;41019;48.512;9.036;2023-04-30T07:03:51;15.00;87.70
55121;DHT22;41019;48.512;9.036;2023-04-30T07:06:19;14.90;87.90
55121;DHT22;41019;48.512;9.036;2023-04-30T07:08:46;15.10;88.20
55121;DHT22;41019;48.512;9.036;2023-04-30T07:11:12;15.00;86.90
55121;DHT22;41019;48.512;9.036;2023-04-30T07:13:38;14.90;87.40
55121;DHT22;41019;48.512;9.036;2023-04-30T07:16:04;15.00;87.50
55121;DHT22;41019;48.512;9.036;2023-04-30T07:18:30;15.00;86.70
55121;DHT22;41019;48.512;9.036;2023-04-30T07:20:57;15.10;87.10
55121;DHT22;41019;48.512;9.036;2023-04-30T07:23:22;15.10;86.20
55121;DHT22;41019;48.512;9.036;2023-04-30T07:25:48;15.20;86.50
55121;DHT22;41019;48.512;9.036;2023-04-30T07:28:14;15.20;85.60
55121;DHT22;41019;48.512;9.036;2023-04-30T07:30:40;15.50;85.80
55121;DHT22;41019;48.512;9.036;2023-04-30T07:33:06;15.50;84.10
55121;DHT22;41019;48.512;9.036;2023-04-30T07:35:32;15.70;84.40
55121;DHT22;41019;48.512;9.036;2023-04-30T07:37:58;16.00;84.90
55121;DHT22;41019;48.512;9.036;2023-04-30T07:40:24;16.20;83.40
55121;DHT22;41019;48.512;9.036;2023-04-30T07:42:50;16.10;82.90
55121;DHT22;41019;48.512;9.036;2023-04-30T07:45:16;16.10;82.70
55121;DHT22;41019;48.512;9.036;2023-04-30T07:47:41;16.10;82.50
55121;DHT22;41019;48.512;9.036;2023-04-30T07:50:07;16.20;82.20
55121;DHT22;41019;48.512;9.036;2023-04-30T07:52:33;16.40;82.50
55121;DHT22;41019;48.512;9.036;2023-04-30T07:54:59;16.60;81.40
55121;DHT22;41019;48.512;9.036;2023-04-30T07:57:25;16.60;80.50
55121;DHT22;41019;48.512;9.036;2023-04-30T07:59:54;16.80;80.00
55121;DHT22;41019;48.512;9.036;2023-04-30T08:02:20;16.90;79.70
55121;DHT22;41019;48.512;9.036;2023-04-30T08:04:46;17.10;79.10
55121;DHT22;41019;48.512;9.036;2023-04-30T08:07:12;17.30;79.10
55121;DHT22;41019;48.512;9.036;2023-04-30T08:09:40;17.60;79.00
55121;DHT22;41019;48.512;9.036;2023-04-30T08:12:07;17.60;76.60
55121;DHT22;41019;48.512;9.036;2023-04-30T08:14:33;17.80;75.80
55121;DHT22;41019;48.512;9.036;2023-04-30T08:16:59;18.10;75.50
55121;DHT22;41019;48.512;9.036;2023-04-30T08:19:25;18.00;73.50
55121;DHT22;41019;48.512;9.036;2023-04-30T08:21:52;17.90;73.70
55121;DHT22;41019;48.512;9.036;2023-04-30T08:24:17;17.90;75.00
55121;DHT22;41019;48.512;9.036;2023-04-30T08:26:43;17.90;76.10
55121;DHT22;41019;48.512;9.036;2023-04-30T08:29:09;18.00;75.70
55121;DHT22;41019;48.512;9.036;2023-04-30T08:31:35;17.90;74.00
55121;DHT22;41019;48.512;9.036;2023-04-30T08:34:01;17.80;74.00
55121;DHT22;41019;48.512;9.036;2023-04-30T08:36:27;17.70;74.00
55121;DHT22;41019;48.512;9.036;2023-04-30T08:38:52;17.70;74.00
55121;DHT22;41019;48.512;9.036;2023-04-30T08:41:24;17.50;73.90
55121;DHT22;41019;48.512;9.036;2023-04-30T08:43:52;17.50;74.20
55121;DHT22;41019;48.512;9.036;2023-04-30T08:46:19;17.50;73.70
55121;DHT22;41019;48.512;9.036;2023-04-30T08:48:48;17.40;73.70
55121;DHT22;41019;48.512;9.036;2023-04-30T08:51:14;17.30;72.30
55121;DHT22;41019;48.512;9.036;2023-04-30T08:53:41;17.30;72.10
55121;DHT22;41019;48.512;9.036;2023-04-30T08:56:09;17.30;72.80
55121;DHT22;41019;48.512;9.036;2023-04-30T08:58:35;17.30;72.50
55121;DHT22;41019;48.512;9.036;2023-04-30T09:01:03;17.20;71.90
55121;DHT22;41019;48.512;9.036;2023-04-30T09:03:31;17.30;72.20
55121;DHT22;41019;48.512;9.036;2023-04-30T09:05:57;17.40;72.70
55121;DHT22;41019;48.512;9.036;2023-04-30T09:08:46;17.50;72.10
55121;DHT22;41019;48.512;9.036;2023-04-30T09:11:23;17.40;71.10
55121;DHT22;41019;48.512;9.036;2023-04-30T09:13:51;17.70;73.10
55121;DHT22;41019;48.512;9.036;2023-04-30T09:16:19;17.70;71.10
55121;DHT22;41019;48.512;9.036;2023-04-30T09:18:45;17.80;70.80
55121;DHT22;41019;48.512;9.036;2023-04-30T09:21:12;17.80;69.20
55121;DHT22;41019;48.512;9.036;2023-04-30T09:23:59;17.60;69.40
55121;DHT22;41019;48.512;9.036;2023-04-30T09:26:34;17.80;70.10
55121;DHT22;41019;48.512;9.036;2023-04-30T09:29:01;17.80;69.60
55121;DHT22;41019;48.512;9.036;2023-04-30T09:31:36;17.80;68.60
55121;DHT22;41019;48.512;9.036;2023-04-30T09:34:03;17.80;69.40
55121;DHT22;41019;48.512;9.036;2023-04-30T09:36:29;17.80;68.90
55121;DHT22;41019;48.512;9.036;2023-04-30T09:39:05;17.80;68.30
55121;DHT22;41019;48.512;9.036;2023-04-30T09:41:31;17.70;68.40
55121;DHT22;41019;48.512;9.036;2023-04-30T09:43:57;17.70;68.50
55121;DHT22;41019;48.512;9.036;2023-04-30T09:46:30;17.80;68.60
55121;DHT22;41019;48.512;9.036;2023-04-30T09:48:58;17.80;68.10
55121;DHT22;41019;48.512;9.036;2023-04-30T09:51:25;17.90;68.50
55121;DHT22;41019;48.512;9.036;2023-04-30T09:53:53;17.90;67.70
55121;DHT22;41019;48.512;9.036;2023-04-30T09:56:21;17.80;67.20
55121;DHT22;41019;48.512;9.036;2023-04-30T09:58:56;17.80;67.60
55121;DHT22;41019;48.512;9.036;2023-04-30T10:01:26;17.80;67.40
55121;DHT22;41019;48.512;9.036;2023-04-30T10:03:53;17.90;68.20
55121;DHT22;41019;48.512;9.036;2023-04-30T10:06:23;18.00;66.90
55121;DHT22;41019;48.512;9.036;2023-04-30T10:08:56;17.90;66.20
55121;DHT22;41019;48.512;9.036;2023-04-30T10:11:27;17.90;67.00
55121;DHT22;41019;48.512;9.036;2023-04-30T10:14:00;18.10;66.40
55121;DHT22;41019;48.512;9.036;2023-04-30T10:19:04;18.00;67.80
55121;DHT22;41019;48.512;9.036;2023-04-30T10:21:31;18.20;67.10
55121;DHT22;41019;48.512;9.036;2023-04-30T10:23:59;18.10;66.20
55121;DHT22;41019;48.512;9.036;2023-04-30T10:26:25;18.20;66.00
55121;DHT22;41019;48.512;9.036;2023-04-30T10:28:52;18.20;65.80
55121;DHT22;41019;48.512;9.036;2023-04-30T10:31:19;18.30;66.20
55121;DHT22;41019;48.512;9.036;2023-04-30T10:36:32;18.40;66.40
55121;DHT22;41019;48.512;9.036;2023-04-30T10:39:04;18.40;65.70
55121;DHT22;41019;48.512;9.036;2023-04-30T10:41:30;18.40;63.90
55121;DHT22;41019;48.512;9.036;2023-04-30T10:43:57;18.20;64.10
55121;DHT22;41019;48.512;9.036;2023-04-30T10:46:25;18.20;64.50
55121;DHT22;41019;48.512;9.036;2023-04-30T10:48:53;18.30;64.80
55121;DHT22;41019;48.512;9.036;2023-04-30T10:51:20;18.40;64.90
55121;DHT22;41019;48.512;9.036;2023-04-30T10:53:50;18.50;64.90
55121;DHT22;41019;48.512;9.036;2023-04-30T10:56:30;18.40;64.00
55121;DHT22;41019;48.512;9.036;2023-04-30T10:58:59;18.30;64.40
55121;DHT22;41019;48.512;9.036;2023-04-30T11:01:29;18.20;64.10
55121;DHT22;41019;48.512;9.036;2023-04-30T11:04:09;18.30;64.90
55121;DHT22;41019;48.512;9.036;2023-04-30T11:09:18;18.20;64.50
55121;DHT22;41019;48.512;9.036;2023-04-30T11:11:45;18.10;64.00
55121;DHT22;41019;48.512;9.036;2023-04-30T11:14:19;18.20;63.50
55121;DHT22;41019;48.512;9.036;2023-04-30T11:16:48;18.10;63.70
55121;DHT22;41019;48.512;9.036;2023-04-30T11:19:15;18.10;64.00
55121;DHT22;41019;48.512;9.036;2023-04-30T11:22:26;18.10;63.90
55121;DHT22;41019;48.512;9.036;2023-04-30T11:24:53;18.10;63.90
55121;DHT22;41019;48.512;9.036;2023-04-30T11:27:33;18.10;62.90
55121;DHT22;41019;48.512;9.036;2023-04-30T11:30:01;18.10;62.80
55121;DHT22;41019;48.512;9.036;2023-04-30T11:32:35;18.00;62.60
55121;DHT22;41019;48.512;9.036;2023-04-30T11:35:03;18.10;62.50
55121;DHT22;41019;48.512;9.036;2023-04-30T11:37:38;18.10;62.40
55121;DHT22;41019;48.512;9.036;2023-04-30T11:40:06;18.20;63.10
55121;DHT22;41019;48.512;9.036;2023-04-30T11:42:33;18.10;62.50
55121;DHT22;41019;48.512;9.036;2023-04-30T11:45:07;18.10;61.80
55121;DHT22;41019;48.512;9.036;2023-04-30T11:47:44;18.40;62.00
55121;DHT22;41019;48.512;9.036;2023-04-30T11:50:12;18.50;61.10
55121;DHT22;41019;48.512;9.036;2023-04-30T11:52:40;18.70;61.90
55121;DHT22;41019;48.512;9.036;2023-04-30T11:55:14;18.80;60.90
55121;DHT22;41019;48.512;9.036;2023-04-30T11:57:46;18.80;59.50
55121;DHT22;41019;48.512;9.036;2023-04-30T12:00:15;18.80;60.50
55121;DHT22;41019;48.512;9.036;2023-04-30T12:02:42;19.00;60.70
55121;DHT22;41019;48.512;9.036;2023-04-30T12:05:15;19.00;59.70
55121;DHT22;41019;48.512;9.036;2023-04-30T12:07:48;19.00;60.00
55121;DHT22;41019;48.512;9.036;2023-04-30T12:10:18;19.00;59.40
55121;DHT22;41019;48.512;9.036;2023-04-30T12:12:45;19.30;60.00
55121;DHT22;41019;48.512;9.036;2023-04-30T12:15:13;19.80;59.70
55121;DHT22;41019;48.512;9.036;2023-04-30T12:17:39;20.00;59.30
55121;DHT22;41019;48.512;9.036;2023-04-30T12:20:07;20.20;58.30
55121;DHT22;41019;48.512;9.036;2023-04-30T12:22:34;20.20;57.60
55121;DHT22;41019;48.512;9.036;2023-04-30T12:25:07;20.40;57.00
55121;DHT22;41019;48.512;9.036;2023-04-30T12:27:35;20.40;56.50
55121;DHT22;41019;48.512;9.036;2023-04-30T12:30:05;20.40;56.60
55121;DHT22;41019;48.512;9.036;2023-04-30T12:32:38;20.60;56.70
55121;DHT22;41019;48.512;9.036;2023-04-30T12:35:05;20.70;55.20
55121;DHT22;41019;48.512;9.036;2023-04-30T12:37:31;21.00;56.30
55121;DHT22;41019;48.512;9.036;2023-04-30T12:39:57;21.20;55.90
55121;DHT22;41019;48.512;9.036;2023-04-30T12:42:24;21.30;54.60
55121;DHT22;41019;48.512;9.036;2023-04-30T12:44:57;21.40;54.20
55121;DHT22;41019;48.512;9.036;2023-04-30T12:47:24;21.50;53.70
55121;DHT22;41019;48.512;9.036;2023-04-30T12:49:50;21.60;53.00
55121;DHT22;41019;48.512;9.036;2023-04-30T12:52:15;21.80;52.90
55121;DHT22;41019;48.512;9.036;2023-04-30T12:54:42;21.90;53.50
55121;DHT22;41019;48.512;9.036;2023-04-30T12:57:11;22.00;51.80
55121;DHT22;41019;48.512;9.036;2023-04-30T12:59:55;22.10;52.30
55121;DHT22;41019;48.512;9.036;2023-04-30T13:02:26;22.20;51.40
55121;DHT22;41019;48.512;9.036;2023-04-30T13:04:53;22.20;51.30
55121;DHT22;41019;48.512;9.036;2023-04-30T13:07:19;22.20;51.10
55121;DHT22;41019;48.512;9.036;2023-04-30T13:09:45;22.20;51.30
55121;DHT22;41019;48.512;9.036;2023-04-30T13:12:11;22.10;50.80
55121;DHT22;41019;48.512;9.036;2023-04-30T13:14:37;21.90;50.80
55121;DHT22;41019;48.512;9.036;2023-04-30T13:17:03;21.80;50.30
55121;DHT22;41019;48.512;9.036;2023-04-30T13:19:32;21.50;51.50
55121;DHT22;41019;48.512;9.036;2023-04-30T13:21:58;21.50;51.60
55121;DHT22;41019;48.512;9.036;2023-04-30T13:24:26;21.30;51.40
55121;DHT22;41019;48.512;9.036;2023-04-30T13:26:52;21.10;52.80
55121;DHT22;41019;48.512;9.036;2023-04-30T13:29:18;21.00;52.60
55121;DHT22;41019;48.512;9.036;2023-04-30T13:31:47;21.00;52.50
55121;DHT22;41019;48.512;9.036;2023-04-30T13:34:14;21.00;52.40
55121;DHT22;41019;48.512;9.036;2023-04-30T13:36:40;20.90;53.00
55121;DHT22;41019;48.512;9.036;2023-04-30T13:39:05;20.70;53.30
55121;DHT22;41019;48.512;9.036;2023-04-30T13:41:32;20.60;53.30
55121;DHT22;41019;48.512;9.036;2023-04-30T13:43:58;20.50;53.20
55121;DHT22;41019;48.512;9.036;2023-04-30T13:46:25;20.30;53.10
55121;DHT22;41019;48.512;9.036;2023-04-30T13:48:51;20.30;54.10
55121;DHT22;41019;48.512;9.036;2023-04-30T13:51:18;20.20;54.10
55121;DHT22;41019;48.512;9.036;2023-04-30T13:53:44;20.10;54.50
55121;DHT22;41019;48.512;9.036;2023-04-30T13:56:10;20.30;54.20
55121;DHT22;41019;48.512;9.036;2023-04-30T13:58:36;20.40;54.60
55121;DHT22;41019;48.512;9.036;2023-04-30T14:01:02;20.50;53.90
55121;DHT22;41019;48.512;9.036;2023-04-30T14:03:29;20.40;53.90
55121;DHT22;41019;48.512;9.036;2023-04-30T14:05:55;20.60;53.90
55121;DHT22;41019;48.512;9.036;2023-04-30T14:08:20;20.70;53.10
55121;DHT22;41019;48.512;9.036;2023-04-30T14:10:46;20.80;52.70
55121;DHT22;41019;48.512;9.036;2023-04-30T14:13:13;20.70;53.00
55121;DHT22;41019;48.512;9.036;2023-04-30T14:15:39;20.70;53.10
55121;DHT22;41019;48.512;9.036;2023-04-30T14:18:05;20.50;53.10
55121;DHT22;41019;48.512;9.036;2023-04-30T14:20:31;20.40;53.20
55121;DHT22;41019;48.512;9.036;2023-04-30T14:22:57;20.20;53.60
55121;DHT22;41019;48.512;9.036;2023-04-30T14:25:23;20.30;54.60
55121;DHT22;41019;48.512;9.036;2023-04-30T14:27:49;20.40;54.70
55121;DHT22;41019;48.512;9.036;2023-04-30T14:30:15;20.30;53.60
55121;DHT22;41019;48.512;9.036;2023-04-30T14:32:41;20.40;54.20
55121;DHT22;41019;48.512;9.036;2023-04-30T14:35:07;20.20;53.30
55121;DHT22;41019;48.512;9.036;2023-04-30T14:37:34;20.30;53.50
55121;DHT22;41019;48.512;9.036;2023-04-30T14:40:00;20.20;53.20
55121;DHT22;41019;48.512;9.036;2023-04-30T14:42:27;20.20;53.60
55121;DHT22;41019;48.512;9.036;2023-04-30T14:44:53;20.10;52.90
55121;DHT22;41019;48.512;9.036;2023-04-30T14:47:19;19.90;53.00
55121;DHT22;41019;48.512;9.036;2023-04-30T14:49:46;19.90;54.00
55121;DHT22;41019;48.512;9.036;2023-04-30T14:52:12;19.80;53.30
55121;DHT22;41019;48.512;9.036;2023-04-30T14:54:38;19.80;53.60
55121;DHT22;41019;48.512;9.036;2023-04-30T14:57:04;19.70;53.80
55121;DHT22;41019;48.512;9.036;2023-04-30T14:59:30;19.80;53.80
55121;DHT22;41019;48.512;9.036;2023-04-30T15:01:56;19.90;53.30
55121;DHT22;41019;48.512;9.036;2023-04-30T15:04:22;19.90;53.50
55121;DHT22;41019;48.512;9.036;2023-04-30T15:06:48;19.80;53.40
55121;DHT22;41019;48.512;9.036;2023-04-30T15:09:14;19.90;53.30
55121;DHT22;41019;48.512;9.036;2023-04-30T15:11:40;19.80;53.70
55121;DHT22;41019;48.512;9.036;2023-04-30T15:14:05;19.90;53.40
55121;DHT22;41019;48.512;9.036;2023-04-30T15:16:31;19.80;53.60
55121;DHT22;41019;48.512;9.036;2023-04-30T15:18:58;19.80;53.80
55121;DHT22;41019;48.512;9.036;2023-04-30T15:21:24;19.70;53.90
55121;DHT22;41019;48.512;9.036;2023-04-30T15:23:51;19.60;54.30
55121;DHT22;41019;48.512;9.036;2023-04-30T15:26:17;19.70;53.60
55121;DHT22;41019;48.512;9.036;2023-04-30T15:28:43;19.70;53.70
55121;DHT22;41019;48.512;9.036;2023-04-30T15:31:09;19.70;53.70
55121;DHT22;41019;48.512;9.036;2023-04-30T15:33:35;19.70;54.00
55121;DHT22;41019;48.512;9.036;2023-04-30T15:36:06;19.60;53.50
55121;DHT22;41019;48.512;9.036;2023-04-30T15:38:33;19.50;53.00
55121;DHT22;41019;48.512;9.036;2023-04-30T15:40:59;19.40;53.40
55121;DHT22;41019;48.512;9.036;2023-04-30T15:43:24;19.50;53.60
55121;DHT22;41019;48.512;9.036;2023-04-30T15:45:51;19.50;53.60
55121;DHT22;41019;48.512;9.036;2023-04-30T15:48:16;19.30;53.80